createdAt,value
2023-02-23T00:00:20.082Z,9.10
2023-02-23T00:01:19.994Z,9.09
2023-02-23T00:02:19.840Z,9.09
2023-02-23T00:03:19.855Z,9.09
2023-02-23T00:04:19.776Z,9.09
2023-02-23T00:05:19.766Z,9.10
2023-02-23T00:06:19.883Z,9.10
2023-02-23T00:07:19.806Z,9.12
2023-02-23T00:08:19.882Z,9.09
2023-02-23T00:09:19.844Z,9.10
2023-02-23T00:10:19.921Z,9.12
2023-02-23T00:11:20.300Z,9.12
2023-02-23T00:12:20.459Z,9.09
2023-02-23T00:13:19.819Z,9.10
2023-02-23T00:14:19.834Z,9.10
2023-02-23T00:15:20.123Z,9.09
2023-02-23T00:16:20.545Z,9.09
2023-02-23T00:17:19.666Z,9.09
2023-02-23T00:18:19.726Z,9.09
2023-02-23T00:19:19.697Z,9.10
2023-02-23T00:20:19.873Z,9.10
2023-02-23T00:21:20.085Z,9.10
2023-02-23T00:22:19.758Z,9.12
2023-02-23T00:23:19.848Z,9.10
2023-02-23T00:24:20.277Z,9.12
2023-02-23T00:25:19.671Z,9.10
2023-02-23T00:26:19.626Z,9.10
2023-02-23T00:27:19.743Z,9.12
2023-02-23T00:28:19.629Z,9.12
2023-02-23T00:29:19.579Z,9.12
2023-02-23T00:30:19.564Z,9.12
2023-02-23T00:31:20.224Z,9.10
2023-02-23T00:32:19.755Z,9.10
2023-02-23T00:33:19.550Z,9.09
2023-02-23T00:34:19.784Z,9.09
2023-02-23T00:35:20.012Z,9.10
2023-02-23T00:36:19.599Z,9.09
2023-02-23T00:37:19.509Z,9.09
2023-02-23T00:38:19.617Z,9.09
2023-02-23T00:39:19.606Z,9.09
2023-02-23T00:40:19.621Z,9.06
2023-02-23T00:41:20.086Z,9.09
2023-02-23T00:42:19.477Z,9.06
2023-02-23T00:43:19.423Z,9.06
2023-02-23T00:44:19.572Z,9.06
2023-02-23T00:45:19.950Z,9.05
2023-02-23T00:46:19.593Z,9.05
2023-02-23T00:47:19.447Z,9.05
2023-02-23T00:48:19.449Z,9.04
2023-02-23T00:49:19.590Z,9.04
2023-02-23T00:50:19.404Z,9.02
2023-02-23T00:51:19.665Z,9.01
2023-02-23T00:52:19.537Z,9.01
2023-02-23T00:53:19.534Z,9.01
2023-02-23T00:54:20.024Z,8.99
2023-02-23T00:55:19.301Z,9.01
2023-02-23T00:56:19.537Z,8.97
2023-02-23T00:57:19.330Z,8.97
2023-02-23T00:58:19.690Z,8.99
2023-02-23T00:59:19.488Z,8.99
2023-02-23T01:00:19.291Z,8.99
2023-02-23T01:01:19.687Z,8.97
2023-02-23T01:02:19.596Z,8.97
2023-02-23T01:03:19.404Z,8.97
2023-02-23T01:04:19.704Z,8.96
2023-02-23T01:05:19.569Z,8.94
2023-02-23T01:06:19.403Z,8.96
2023-02-23T01:07:19.180Z,8.93
2023-02-23T01:08:19.178Z,8.93
2023-02-23T01:09:19.770Z,8.91
2023-02-23T01:10:19.259Z,8.91
2023-02-23T01:11:19.487Z,8.91
2023-02-23T01:12:19.185Z,8.93
2023-02-23T01:13:19.246Z,8.93
2023-02-23T01:14:19.323Z,8.91
2023-02-23T01:15:19.601Z,8.91
2023-02-23T01:16:19.316Z,8.91
2023-02-23T01:17:19.289Z,8.91
2023-02-23T01:18:19.103Z,8.90
2023-02-23T01:19:19.578Z,8.91
2023-02-23T01:20:19.394Z,8.88
2023-02-23T01:21:19.925Z,8.90
2023-02-23T01:22:19.007Z,8.88
2023-02-23T01:23:21.110Z,8.88
2023-02-23T01:24:19.090Z,8.91
2023-02-23T01:25:19.176Z,8.88
2023-02-23T01:26:19.588Z,8.87
2023-02-23T01:27:18.950Z,8.90
2023-02-23T01:28:19.337Z,8.86
2023-02-23T01:29:19.379Z,8.86
2023-02-23T01:30:19.277Z,8.84
2023-02-23T01:31:20.331Z,8.84
2023-02-23T01:32:19.633Z,8.84
2023-02-23T01:33:19.189Z,8.83
2023-02-23T01:34:19.099Z,8.83
2023-02-23T01:35:19.265Z,8.79
2023-02-23T01:36:19.157Z,8.81
2023-02-23T01:37:19.351Z,8.81
2023-02-23T01:38:18.911Z,8.78
2023-02-23T01:39:19.014Z,8.78
2023-02-23T01:40:19.084Z,8.78
2023-02-23T01:41:19.146Z,8.76
2023-02-23T01:42:19.557Z,8.75
2023-02-23T01:43:18.767Z,8.76
2023-02-23T01:44:18.764Z,8.73
2023-02-23T01:45:18.773Z,8.75
2023-02-23T01:46:18.824Z,8.73
2023-02-23T01:47:18.745Z,8.75
2023-02-23T01:48:19.125Z,8.73
2023-02-23T01:49:18.752Z,8.73
2023-02-23T01:50:18.766Z,8.73
2023-02-23T01:51:19.195Z,8.73
2023-02-23T01:52:18.957Z,8.72
2023-02-23T01:53:18.726Z,8.73
2023-02-23T01:54:18.737Z,8.73
2023-02-23T01:55:19.039Z,8.72
2023-02-23T01:56:19.097Z,8.73
2023-02-23T01:57:18.677Z,8.72
2023-02-23T01:58:18.692Z,8.73
2023-02-23T01:59:18.671Z,8.72
2023-02-23T02:00:18.716Z,8.72
2023-02-23T02:01:19.218Z,8.72
2023-02-23T02:02:18.698Z,8.72
2023-02-23T02:03:18.599Z,8.72
2023-02-23T02:04:18.765Z,8.72
2023-02-23T02:05:18.829Z,8.72
2023-02-23T02:06:18.631Z,8.72
2023-02-23T02:07:18.588Z,8.72
2023-02-23T02:08:18.726Z,8.72
2023-02-23T02:09:18.711Z,8.73
2023-02-23T02:10:18.537Z,8.71
2023-02-23T02:11:18.836Z,8.71
2023-02-23T02:12:18.577Z,8.72
2023-02-23T02:13:18.722Z,8.71
2023-02-23T02:14:18.475Z,8.71
2023-02-23T02:15:18.676Z,8.71
2023-02-23T02:16:18.751Z,8.71
2023-02-23T02:17:19.077Z,8.71
2023-02-23T02:18:18.954Z,8.69
2023-02-23T02:19:18.789Z,8.71
2023-02-23T02:20:18.828Z,8.71
2023-02-23T02:21:19.330Z,8.69
2023-02-23T02:22:18.579Z,8.71
2023-02-23T02:23:18.700Z,8.69
2023-02-23T02:24:18.751Z,8.71
2023-02-23T02:25:18.758Z,8.71
2023-02-23T02:26:18.430Z,8.71
2023-02-23T02:27:18.733Z,8.71
2023-02-23T02:28:18.743Z,8.71
2023-02-23T02:29:18.405Z,8.71
2023-02-23T02:30:18.713Z,8.71
2023-02-23T02:31:18.749Z,8.69
2023-02-23T02:32:18.641Z,8.71
2023-02-23T02:33:18.397Z,8.71
2023-02-23T02:34:18.401Z,8.69
2023-02-23T02:35:18.859Z,8.69
2023-02-23T02:36:18.462Z,8.68
2023-02-23T02:37:18.456Z,8.71
2023-02-23T02:38:18.743Z,8.71
2023-02-23T02:39:18.353Z,8.69
2023-02-23T02:40:18.550Z,8.69
2023-02-23T02:41:18.628Z,8.68
2023-02-23T02:42:18.349Z,8.69
2023-02-23T02:43:18.371Z,8.68
2023-02-23T02:44:18.224Z,8.69
2023-02-23T02:45:18.215Z,8.66
2023-02-23T02:46:18.167Z,8.66
2023-02-23T02:47:18.477Z,8.66
2023-02-23T02:48:18.184Z,8.68
2023-02-23T02:49:18.282Z,8.68
2023-02-23T02:50:18.164Z,8.68
2023-02-23T02:51:18.573Z,8.66
2023-02-23T02:52:18.102Z,8.66
2023-02-23T02:53:18.429Z,8.68
2023-02-23T02:54:18.120Z,8.68
2023-02-23T02:55:18.043Z,8.68
2023-02-23T02:56:19.128Z,8.69
2023-02-23T02:57:18.160Z,8.71
2023-02-23T02:58:18.147Z,8.71
2023-02-23T02:59:18.366Z,8.71
2023-02-23T03:00:18.568Z,8.69
2023-02-23T03:01:18.749Z,8.69
2023-02-23T03:02:18.777Z,8.69
2023-02-23T03:03:18.461Z,8.69
2023-02-23T03:04:18.418Z,8.69
2023-02-23T03:05:18.762Z,8.69
2023-02-23T03:06:18.227Z,8.68
2023-02-23T03:07:18.109Z,8.68
2023-02-23T03:08:18.054Z,8.69
2023-02-23T03:09:18.025Z,8.71
2023-02-23T03:10:17.902Z,8.69
2023-02-23T03:11:18.972Z,8.68
2023-02-23T03:12:18.280Z,8.69
2023-02-23T03:13:17.970Z,8.71
2023-02-23T03:14:18.189Z,8.68
2023-02-23T03:15:17.858Z,8.68
2023-02-23T03:16:18.211Z,8.66
2023-02-23T03:17:17.824Z,8.66
2023-02-23T03:18:17.942Z,8.69
2023-02-23T03:19:17.882Z,8.66
2023-02-23T03:20:17.937Z,8.68
2023-02-23T03:21:18.677Z,8.66
2023-02-23T03:22:18.503Z,8.66
2023-02-23T03:23:18.286Z,8.65
2023-02-23T03:24:18.046Z,8.65
2023-02-23T03:25:18.288Z,8.65
2023-02-23T03:26:18.005Z,8.66
2023-02-23T03:27:17.964Z,8.66
2023-02-23T03:28:17.896Z,8.66
2023-02-23T03:29:18.371Z,8.66
2023-02-23T03:30:17.893Z,8.65
2023-02-23T03:31:18.063Z,8.63
2023-02-23T03:32:17.846Z,8.65
2023-02-23T03:33:17.762Z,8.65
2023-02-23T03:34:17.685Z,8.66
2023-02-23T03:35:17.690Z,8.65
2023-02-23T03:36:17.709Z,8.68
2023-02-23T03:37:17.645Z,8.65
2023-02-23T03:38:17.647Z,8.66
2023-02-23T03:39:17.620Z,8.66
2023-02-23T03:40:17.637Z,8.65
2023-02-23T03:41:18.011Z,8.65
2023-02-23T03:42:17.634Z,8.66
2023-02-23T03:43:17.587Z,8.65
2023-02-23T03:44:17.590Z,8.66
2023-02-23T03:45:17.563Z,8.68
2023-02-23T03:46:17.554Z,8.68
2023-02-23T03:47:17.550Z,8.66
2023-02-23T03:48:17.579Z,8.68
2023-02-23T03:49:18.091Z,8.69
2023-02-23T03:50:17.514Z,8.68
2023-02-23T03:51:18.048Z,8.68
2023-02-23T03:52:17.675Z,8.69
2023-02-23T03:53:17.484Z,8.71
2023-02-23T03:54:17.681Z,8.71
2023-02-23T03:55:17.521Z,8.72
2023-02-23T03:56:17.533Z,8.71
2023-02-23T03:57:17.633Z,8.71
2023-02-23T03:58:18.157Z,8.71
2023-02-23T03:59:17.478Z,8.71
2023-02-23T04:00:17.512Z,8.71
2023-02-23T04:01:17.903Z,8.69
2023-02-23T04:02:17.427Z,8.69
2023-02-23T04:03:17.393Z,8.68
2023-02-23T04:04:17.395Z,8.69
2023-02-23T04:05:17.347Z,8.69
2023-02-23T04:06:17.387Z,8.69
2023-02-23T04:07:17.581Z,8.68
2023-02-23T04:08:17.363Z,8.66
2023-02-23T04:09:17.320Z,8.66
2023-02-23T04:10:17.338Z,8.68
2023-02-23T04:11:17.705Z,8.68
2023-02-23T04:12:17.572Z,8.66
2023-02-23T04:13:17.457Z,8.65
2023-02-23T04:14:17.660Z,8.66
2023-02-23T04:15:17.722Z,8.65
2023-02-23T04:16:17.645Z,8.63
2023-02-23T04:17:17.638Z,8.63
2023-02-23T04:18:17.481Z,8.65
2023-02-23T04:19:17.252Z,8.63
2023-02-23T04:20:17.317Z,8.62
2023-02-23T04:21:17.914Z,8.63
2023-02-23T04:22:17.769Z,8.62
2023-02-23T04:23:17.484Z,8.62
2023-02-23T04:24:17.498Z,8.60
2023-02-23T04:25:17.571Z,8.62
2023-02-23T04:26:17.309Z,8.62
2023-02-23T04:27:17.168Z,8.62
2023-02-23T04:28:17.448Z,8.60
2023-02-23T04:29:17.127Z,8.58
2023-02-23T04:30:17.187Z,8.60
2023-02-23T04:31:17.691Z,8.58
2023-02-23T04:32:17.182Z,8.58
2023-02-23T04:33:17.472Z,8.58
2023-02-23T04:34:17.200Z,8.58
2023-02-23T04:35:17.124Z,8.57
2023-02-23T04:36:17.203Z,8.55
2023-02-23T04:37:17.276Z,8.55
2023-02-23T04:38:17.182Z,8.54
2023-02-23T04:39:17.205Z,8.55
2023-02-23T04:40:17.329Z,8.54
2023-02-23T04:41:17.255Z,8.55
2023-02-23T04:42:17.031Z,8.55
2023-02-23T04:43:17.216Z,8.54
2023-02-23T04:44:17.461Z,8.54
2023-02-23T04:45:17.265Z,8.54
2023-02-23T04:46:17.400Z,8.53
2023-02-23T04:47:17.380Z,8.53
2023-02-23T04:48:17.299Z,8.53
2023-02-23T04:49:17.008Z,8.51
2023-02-23T04:50:16.953Z,8.53
2023-02-23T04:51:17.335Z,8.50
2023-02-23T04:52:16.921Z,8.50
2023-02-23T04:53:16.888Z,8.50
2023-02-23T04:54:16.930Z,8.50
2023-02-23T04:55:17.070Z,8.48
2023-02-23T04:56:17.009Z,8.48
2023-02-23T04:57:16.862Z,8.48
2023-02-23T04:58:17.344Z,8.48
2023-02-23T04:59:16.826Z,8.48
2023-02-23T05:00:16.951Z,8.47
2023-02-23T05:01:17.448Z,8.48
2023-02-23T05:02:16.993Z,8.47
2023-02-23T05:03:16.780Z,8.47
2023-02-23T05:04:16.756Z,8.47
2023-02-23T05:05:16.973Z,8.45
2023-02-23T05:06:16.970Z,8.47
2023-02-23T05:07:16.810Z,8.48
2023-02-23T05:08:16.885Z,8.47
2023-02-23T05:09:17.001Z,8.45
2023-02-23T05:10:16.707Z,8.45
2023-02-23T05:11:17.547Z,8.44
2023-02-23T05:12:16.825Z,8.44
2023-02-23T05:13:16.664Z,8.44
2023-02-23T05:14:16.745Z,8.42
2023-02-23T05:15:16.645Z,8.44
2023-02-23T05:16:16.810Z,8.42
2023-02-23T05:17:16.724Z,8.40
2023-02-23T05:18:16.653Z,8.40
2023-02-23T05:19:17.169Z,8.42
2023-02-23T05:20:16.910Z,8.44
2023-02-23T05:21:16.843Z,8.40
2023-02-23T05:22:16.697Z,8.42
2023-02-23T05:23:16.583Z,8.40
2023-02-23T05:24:16.977Z,8.40
2023-02-23T05:25:16.574Z,8.40
2023-02-23T05:26:16.620Z,8.42
2023-02-23T05:27:16.679Z,8.42
2023-02-23T05:28:16.633Z,8.42
2023-02-23T05:29:16.748Z,8.42
2023-02-23T05:30:16.685Z,8.42
2023-02-23T05:31:16.735Z,8.42
2023-02-23T05:32:16.645Z,8.39
2023-02-23T05:33:18.277Z,8.40
2023-02-23T05:34:16.433Z,8.40
2023-02-23T05:35:16.428Z,8.37
2023-02-23T05:36:16.816Z,8.39
2023-02-23T05:37:16.426Z,8.37
2023-02-23T05:38:16.446Z,8.37
2023-02-23T05:39:16.436Z,8.37
2023-02-23T05:40:16.411Z,8.39
2023-02-23T05:41:17.161Z,8.39
2023-02-23T05:42:16.405Z,8.37
2023-02-23T05:43:16.386Z,8.37
2023-02-23T05:44:16.471Z,8.37
2023-02-23T05:45:16.501Z,8.39
2023-02-23T05:46:16.487Z,8.39
2023-02-23T05:47:16.504Z,8.39
2023-02-23T05:48:16.343Z,8.37
2023-02-23T05:49:16.302Z,8.39
2023-02-23T05:50:16.529Z,8.39
2023-02-23T05:51:16.314Z,8.37
2023-02-23T05:52:16.387Z,8.39
2023-02-23T05:53:16.347Z,8.40
2023-02-23T05:54:16.467Z,8.39
2023-02-23T05:55:16.232Z,8.39
2023-02-23T05:56:16.264Z,8.39
2023-02-23T05:57:16.349Z,8.39
2023-02-23T05:58:16.209Z,8.40
2023-02-23T05:59:16.273Z,8.39
2023-02-23T06:00:16.188Z,8.37
2023-02-23T06:01:16.450Z,8.39
2023-02-23T06:02:16.171Z,8.37
2023-02-23T06:03:16.614Z,8.37
2023-02-23T06:04:16.179Z,8.37
2023-02-23T06:05:16.168Z,8.36
2023-02-23T06:06:16.191Z,8.37
2023-02-23T06:07:16.121Z,8.36
2023-02-23T06:08:16.137Z,8.37
2023-02-23T06:09:16.113Z,8.39
2023-02-23T06:10:16.386Z,8.37
2023-02-23T06:11:16.377Z,8.37
2023-02-23T06:12:16.310Z,8.37
2023-02-23T06:13:16.357Z,8.39
2023-02-23T06:14:16.273Z,8.37
2023-02-23T06:15:16.177Z,8.37
2023-02-23T06:16:16.191Z,8.37
2023-02-23T06:17:16.071Z,8.37
2023-02-23T06:18:16.028Z,8.37
2023-02-23T06:19:16.013Z,8.37
2023-02-23T06:20:15.991Z,8.37
2023-02-23T06:21:16.006Z,8.37
2023-02-23T06:22:15.962Z,8.37
2023-02-23T06:23:15.963Z,8.37
2023-02-23T06:24:15.987Z,8.37
2023-02-23T06:25:15.937Z,8.37
2023-02-23T06:26:15.931Z,8.37
2023-02-23T06:27:15.924Z,8.37
2023-02-23T06:28:15.912Z,8.39
2023-02-23T06:29:15.922Z,8.37
2023-02-23T06:30:15.943Z,8.39
2023-02-23T06:31:15.931Z,8.37
2023-02-23T06:32:16.045Z,8.39
2023-02-23T06:33:15.890Z,8.39
2023-02-23T06:34:15.844Z,8.36
2023-02-23T06:35:15.831Z,8.36
2023-02-23T06:36:15.841Z,8.37
2023-02-23T06:37:15.858Z,8.37
2023-02-23T06:38:15.795Z,8.36
2023-02-23T06:39:15.774Z,8.37
2023-02-23T06:40:15.876Z,8.39
2023-02-23T06:41:15.898Z,8.39
2023-02-23T06:42:15.823Z,8.40
2023-02-23T06:43:15.749Z,8.40
2023-02-23T06:44:16.180Z,8.39
2023-02-23T06:45:16.039Z,8.39
2023-02-23T06:46:15.963Z,8.37
2023-02-23T06:47:15.739Z,8.37
2023-02-23T06:48:15.760Z,8.39
2023-02-23T06:49:16.685Z,8.37
2023-02-23T06:50:15.704Z,8.36
2023-02-23T06:51:16.216Z,8.39
2023-02-23T06:52:15.679Z,8.39
2023-02-23T06:53:16.036Z,8.37
2023-02-23T06:54:16.077Z,8.40
2023-02-23T06:55:15.669Z,8.42
2023-02-23T06:56:15.634Z,8.39
2023-02-23T06:57:15.654Z,8.37
2023-02-23T06:58:15.623Z,8.40
2023-02-23T06:59:15.902Z,8.40
2023-02-23T07:00:16.056Z,8.40
2023-02-23T07:01:15.782Z,8.40
2023-02-23T07:02:15.754Z,8.40
2023-02-23T07:03:15.657Z,8.42
2023-02-23T07:04:16.878Z,8.42
2023-02-23T07:05:15.577Z,8.42
2023-02-23T07:06:15.761Z,8.42
2023-02-23T07:07:15.526Z,8.42
2023-02-23T07:08:15.505Z,8.44
2023-02-23T07:09:15.554Z,8.44
2023-02-23T07:10:15.731Z,8.44
2023-02-23T07:11:15.485Z,8.44
2023-02-23T07:12:15.510Z,8.44
2023-02-23T07:13:15.419Z,8.42
2023-02-23T07:14:26.067Z,8.44
2023-02-23T07:15:16.125Z,8.44
2023-02-23T07:16:16.006Z,8.45
2023-02-23T07:17:15.454Z,8.44
2023-02-23T07:18:15.753Z,8.42
2023-02-23T07:19:15.572Z,8.44
2023-02-23T07:20:16.154Z,8.44
2023-02-23T07:21:15.631Z,8.44
2023-02-23T07:22:15.406Z,8.44
2023-02-23T07:23:16.033Z,8.42
2023-02-23T07:24:15.485Z,8.42
2023-02-23T07:25:15.353Z,8.42
2023-02-23T07:26:15.427Z,8.42
2023-02-23T07:27:15.644Z,8.42
2023-02-23T07:28:15.510Z,8.42
2023-02-23T07:29:15.333Z,8.39
2023-02-23T07:30:15.439Z,8.40
2023-02-23T07:31:15.594Z,8.39
2023-02-23T07:32:15.571Z,8.37
2023-02-23T07:33:15.255Z,8.36
2023-02-23T07:34:15.315Z,8.35
2023-02-23T07:35:15.325Z,8.30
2023-02-23T07:36:15.286Z,8.30
2023-02-23T07:37:15.353Z,8.29
2023-02-23T07:38:15.300Z,8.29
2023-02-23T07:39:15.381Z,8.29
2023-02-23T07:40:15.318Z,8.29
2023-02-23T07:41:15.345Z,8.28
2023-02-23T07:42:15.652Z,8.28
2023-02-23T07:43:15.462Z,8.28
2023-02-23T07:44:15.361Z,8.29
2023-02-23T07:45:15.454Z,8.26
2023-02-23T07:46:15.233Z,8.29
2023-02-23T07:47:15.457Z,8.32
2023-02-23T07:48:15.146Z,8.29
2023-02-23T07:49:15.856Z,8.30
2023-02-23T07:50:15.706Z,8.30
2023-02-23T07:51:15.140Z,8.30
2023-02-23T07:52:15.348Z,8.30
2023-02-23T07:53:15.198Z,8.30
2023-02-23T07:54:15.130Z,8.30
2023-02-23T07:55:15.058Z,8.29
2023-02-23T07:56:15.208Z,8.29
2023-02-23T07:57:15.229Z,8.26
2023-02-23T07:58:15.208Z,8.26
2023-02-23T07:59:14.992Z,8.26
2023-02-23T08:00:15.059Z,8.25
2023-02-23T08:01:15.120Z,8.22
2023-02-23T08:02:15.122Z,8.25
2023-02-23T08:03:14.962Z,8.21
2023-02-23T08:04:15.006Z,8.17
2023-02-23T08:05:15.009Z,8.14
2023-02-23T08:06:15.149Z,8.15
2023-02-23T08:07:14.915Z,8.15
2023-02-23T08:08:15.042Z,8.14
2023-02-23T08:09:14.968Z,8.14
2023-02-23T08:10:14.893Z,8.15
2023-02-23T08:11:15.025Z,8.15
2023-02-23T08:12:14.912Z,8.15
2023-02-23T08:13:14.881Z,8.17
2023-02-23T08:14:14.847Z,8.15
2023-02-23T08:15:14.856Z,8.17
2023-02-23T08:16:14.920Z,8.15
2023-02-23T08:17:14.949Z,8.12
2023-02-23T08:18:15.938Z,8.12
2023-02-23T08:19:14.894Z,8.14
2023-02-23T08:20:15.102Z,8.14
2023-02-23T08:21:14.960Z,8.17
2023-02-23T08:22:14.908Z,8.18
2023-02-23T08:23:14.795Z,8.22
2023-02-23T08:24:15.181Z,8.22
2023-02-23T08:25:15.207Z,8.22
2023-02-23T08:26:14.720Z,8.26
2023-02-23T08:27:14.715Z,8.22
2023-02-23T08:28:14.698Z,8.22
2023-02-23T08:29:14.807Z,8.21
2023-02-23T08:30:14.876Z,8.22
2023-02-23T08:31:14.796Z,8.25
2023-02-23T08:32:15.064Z,8.22
2023-02-23T08:33:14.883Z,8.25
2023-02-23T08:34:14.656Z,8.26
2023-02-23T08:35:14.638Z,8.28
2023-02-23T08:36:14.899Z,8.28
2023-02-23T08:37:14.654Z,8.26
2023-02-23T08:38:14.716Z,8.32
2023-02-23T08:39:14.598Z,8.30
2023-02-23T08:40:14.684Z,8.32
2023-02-23T08:41:14.627Z,8.30
2023-02-23T08:42:14.592Z,8.30
2023-02-23T08:43:14.521Z,8.30
2023-02-23T08:44:14.649Z,8.33
2023-02-23T08:45:14.500Z,8.33
2023-02-23T08:46:14.623Z,8.36
2023-02-23T08:47:14.589Z,8.37
2023-02-23T08:48:14.660Z,8.40
2023-02-23T08:49:14.632Z,8.44
2023-02-23T08:50:14.680Z,8.45
2023-02-23T08:51:14.909Z,8.47
2023-02-23T08:52:14.446Z,8.47
2023-02-23T08:53:14.653Z,8.47
2023-02-23T08:54:14.823Z,8.47
2023-02-23T08:55:14.719Z,8.47
2023-02-23T08:56:14.427Z,8.48
2023-02-23T08:57:14.575Z,8.53
2023-02-23T08:58:14.935Z,8.55
2023-02-23T08:59:14.412Z,8.57
2023-02-23T09:00:14.513Z,8.60
2023-02-23T09:01:14.493Z,8.62
2023-02-23T09:02:14.359Z,8.63
2023-02-23T09:03:14.388Z,8.65
2023-02-23T09:04:14.768Z,8.71
2023-02-23T09:05:14.452Z,8.75
2023-02-23T09:06:14.571Z,8.81
2023-02-23T09:07:14.458Z,8.86
2023-02-23T09:08:15.158Z,8.91
2023-02-23T09:09:14.430Z,8.94
2023-02-23T09:10:14.453Z,8.96
2023-02-23T09:11:14.303Z,9.04
2023-02-23T09:12:14.310Z,9.06
2023-02-23T09:13:14.290Z,9.09
2023-02-23T09:14:14.325Z,9.10
2023-02-23T09:15:14.227Z,9.09
2023-02-23T09:16:15.055Z,9.04
2023-02-23T09:17:14.646Z,9.02
2023-02-23T09:18:14.333Z,9.04
2023-02-23T09:19:14.245Z,9.04
2023-02-23T09:20:14.220Z,9.04
2023-02-23T09:21:14.468Z,9.05
2023-02-23T09:22:14.755Z,9.02
2023-02-23T09:23:14.191Z,8.99
2023-02-23T09:24:14.195Z,8.97
2023-02-23T09:25:14.636Z,8.96
2023-02-23T09:26:14.129Z,8.97
2023-02-23T09:27:14.352Z,8.93
2023-02-23T09:28:14.140Z,8.93
2023-02-23T09:29:14.348Z,8.93
2023-02-23T09:30:14.130Z,8.91
2023-02-23T09:31:14.213Z,8.84
2023-02-23T09:32:14.330Z,8.81
2023-02-23T09:33:14.034Z,8.81
2023-02-23T09:34:14.372Z,8.84
2023-02-23T09:35:14.309Z,8.86
2023-02-23T09:36:14.312Z,8.88
2023-02-23T09:37:14.065Z,8.93
2023-02-23T09:38:14.178Z,8.99
2023-02-23T09:39:14.194Z,8.93
2023-02-23T09:40:13.981Z,8.88
2023-02-23T09:41:14.492Z,8.91
2023-02-23T09:42:14.052Z,8.97
2023-02-23T09:43:13.966Z,9.04
2023-02-23T09:44:14.563Z,9.12
2023-02-23T09:45:14.109Z,9.18
2023-02-23T09:46:14.487Z,9.23
2023-02-23T09:47:14.292Z,9.30
2023-02-23T09:48:14.159Z,9.30
2023-02-23T09:49:13.900Z,9.27
2023-02-23T09:50:13.974Z,9.28
2023-02-23T09:51:13.975Z,9.32
2023-02-23T09:52:14.444Z,9.32
2023-02-23T09:53:13.989Z,9.35
2023-02-23T09:54:14.187Z,9.34
2023-02-23T09:55:13.987Z,9.28
2023-02-23T09:56:14.016Z,9.30
2023-02-23T09:57:14.318Z,9.30
2023-02-23T09:58:13.905Z,9.34
2023-02-23T09:59:13.750Z,9.32
2023-02-23T10:00:13.852Z,9.31
2023-02-23T10:01:13.971Z,9.31
2023-02-23T10:02:13.837Z,9.31
2023-02-23T10:03:13.841Z,9.27
2023-02-23T10:04:14.000Z,9.15
2023-02-23T10:05:13.981Z,9.10
2023-02-23T10:06:13.973Z,9.12
2023-02-23T10:07:13.836Z,9.06
2023-02-23T10:08:13.787Z,9.01
2023-02-23T10:09:14.251Z,9.02
2023-02-23T10:10:13.756Z,9.06
2023-02-23T10:11:13.935Z,9.10
2023-02-23T10:12:14.130Z,9.10
2023-02-23T10:13:13.876Z,9.10
2023-02-23T10:14:14.190Z,9.13
2023-02-23T10:15:13.907Z,9.13
2023-02-23T10:16:13.851Z,9.16
2023-02-23T10:17:13.571Z,9.16
2023-02-23T10:18:13.924Z,9.16
2023-02-23T10:19:14.021Z,9.15
2023-02-23T10:20:13.577Z,9.18
2023-02-23T10:21:13.789Z,9.21
2023-02-23T10:22:13.925Z,9.24
2023-02-23T10:23:13.578Z,9.25
2023-02-23T10:24:13.581Z,9.21
2023-02-23T10:25:13.937Z,9.21
2023-02-23T10:26:13.750Z,9.23
2023-02-23T10:27:13.711Z,9.24
2023-02-23T10:28:13.525Z,9.25
2023-02-23T10:29:13.489Z,9.28
2023-02-23T10:30:13.539Z,9.28
2023-02-23T10:31:13.690Z,9.24
2023-02-23T10:32:13.606Z,9.21
2023-02-23T10:33:13.461Z,9.16
2023-02-23T10:34:13.428Z,9.13
2023-02-23T10:35:13.541Z,8.97
2023-02-23T10:36:14.099Z,8.90
2023-02-23T10:37:13.399Z,8.90
2023-02-23T10:38:13.382Z,8.88
2023-02-23T10:39:13.754Z,8.87
2023-02-23T10:40:13.503Z,8.88
2023-02-23T10:41:15.084Z,8.96
2023-02-23T10:42:13.528Z,9.04
2023-02-23T10:43:13.361Z,9.10
2023-02-23T10:44:16.975Z,9.18
2023-02-23T10:45:13.299Z,9.23
2023-02-23T10:46:13.428Z,9.23
2023-02-23T10:47:13.353Z,9.18
2023-02-23T10:48:13.623Z,9.15
2023-02-23T10:49:13.681Z,9.16
2023-02-23T10:50:13.743Z,9.18
2023-02-23T10:51:13.500Z,9.23
2023-02-23T10:52:13.336Z,9.24
2023-02-23T10:53:13.430Z,9.31
2023-02-23T10:54:13.262Z,9.35
2023-02-23T10:55:13.229Z,9.42
2023-02-23T10:56:13.497Z,9.45
2023-02-23T10:57:13.210Z,9.40
2023-02-23T10:58:13.270Z,9.39
2023-02-23T10:59:13.284Z,9.31
2023-02-23T11:00:13.406Z,9.21
2023-02-23T11:01:13.249Z,9.16
2023-02-23T11:02:13.611Z,9.13
2023-02-23T11:03:13.199Z,9.12
2023-02-23T11:04:13.493Z,9.09
2023-02-23T11:05:14.165Z,9.10
2023-02-23T11:06:13.166Z,9.10
2023-02-23T11:07:14.109Z,9.04
2023-02-23T11:08:14.038Z,9.01
2023-02-23T11:09:13.689Z,8.97
2023-02-23T11:10:13.639Z,8.94
2023-02-23T11:11:13.485Z,8.93
2023-02-23T11:12:13.360Z,8.94
2023-02-23T11:13:13.114Z,8.94
2023-02-23T11:14:13.096Z,8.94
2023-02-23T11:15:13.335Z,8.88
2023-02-23T11:16:13.161Z,8.84
2023-02-23T11:17:13.077Z,8.72
2023-02-23T11:18:13.159Z,8.71
2023-02-23T11:19:13.355Z,8.69
2023-02-23T11:20:12.960Z,8.68
2023-02-23T11:21:13.465Z,8.63
2023-02-23T11:22:13.036Z,8.65
2023-02-23T11:23:14.659Z,8.65
2023-02-23T11:24:13.177Z,8.58
2023-02-23T11:25:12.900Z,8.57
2023-02-23T11:26:12.895Z,8.57
2023-02-23T11:27:13.037Z,8.57
2023-02-23T11:28:12.885Z,8.58
2023-02-23T11:29:12.884Z,8.63
2023-02-23T11:30:12.902Z,8.65
2023-02-23T11:31:13.755Z,8.68
2023-02-23T11:32:13.016Z,8.72
2023-02-23T11:33:12.941Z,8.69
2023-02-23T11:34:12.976Z,8.72
2023-02-23T11:35:12.797Z,8.71
2023-02-23T11:36:12.915Z,8.72
2023-02-23T11:37:12.870Z,8.76
2023-02-23T11:38:13.132Z,8.75
2023-02-23T11:39:12.980Z,8.75
2023-02-23T11:40:13.060Z,8.71
2023-02-23T11:41:13.185Z,8.73
2023-02-23T11:42:13.016Z,8.78
2023-02-23T11:43:12.723Z,8.81
2023-02-23T11:44:12.724Z,8.81
2023-02-23T11:45:12.900Z,8.86
2023-02-23T11:46:12.756Z,8.90
2023-02-23T11:47:12.725Z,8.91
2023-02-23T11:48:13.476Z,8.90
2023-02-23T11:49:13.057Z,8.90
2023-02-23T11:50:12.639Z,8.93
2023-02-23T11:51:12.642Z,8.94
2023-02-23T11:52:12.784Z,8.96
2023-02-23T11:53:12.615Z,8.94
2023-02-23T11:54:12.623Z,8.99
2023-02-23T11:55:12.704Z,9.04
2023-02-23T11:56:12.759Z,9.10
2023-02-23T11:57:12.683Z,9.13
2023-02-23T11:58:12.603Z,9.16
2023-02-23T11:59:12.583Z,9.18
2023-02-23T12:00:12.631Z,9.18
2023-02-23T12:01:12.664Z,9.20
2023-02-23T12:02:12.776Z,9.24
2023-02-23T12:03:12.758Z,9.28
2023-02-23T12:04:12.976Z,9.30
2023-02-23T12:05:12.542Z,9.27
2023-02-23T12:06:12.580Z,9.23
2023-02-23T12:07:12.506Z,9.20
2023-02-23T12:08:12.511Z,9.21
2023-02-23T12:09:12.836Z,9.16
2023-02-23T12:10:12.511Z,9.16
2023-02-23T12:11:12.505Z,9.15
2023-02-23T12:12:12.601Z,9.12
2023-02-23T12:13:12.568Z,9.09
2023-02-23T12:14:12.418Z,9.04
2023-02-23T12:15:12.468Z,9.04
2023-02-23T12:16:12.722Z,9.06
2023-02-23T12:17:12.728Z,9.05
2023-02-23T12:18:12.665Z,9.04
2023-02-23T12:19:12.590Z,9.04
2023-02-23T12:20:12.492Z,8.99
2023-02-23T12:21:12.381Z,8.94
2023-02-23T12:22:12.369Z,8.93
2023-02-23T12:23:12.392Z,8.94
2023-02-23T12:24:12.359Z,8.93
2023-02-23T12:25:12.464Z,8.88
2023-02-23T12:26:12.476Z,8.90
2023-02-23T12:27:12.311Z,8.90
2023-02-23T12:28:18.857Z,8.88
2023-02-23T12:29:12.415Z,8.91
2023-02-23T12:30:12.296Z,8.84
2023-02-23T12:31:12.235Z,8.81
2023-02-23T12:32:12.590Z,8.83
2023-02-23T12:33:12.612Z,8.83
2023-02-23T12:34:12.504Z,8.83
2023-02-23T12:35:12.597Z,8.86
2023-02-23T12:36:12.190Z,8.86
2023-02-23T12:37:12.275Z,8.88
2023-02-23T12:38:12.234Z,8.88
2023-02-23T12:39:12.273Z,8.90
2023-02-23T12:40:12.203Z,8.91
2023-02-23T12:41:12.166Z,8.93
2023-02-23T12:42:12.509Z,8.94
2023-02-23T12:43:12.314Z,8.96
2023-02-23T12:44:12.567Z,8.97
2023-02-23T12:45:12.251Z,8.94
2023-02-23T12:46:12.301Z,8.93
2023-02-23T12:47:12.091Z,8.93
2023-02-23T12:48:12.276Z,8.94
2023-02-23T12:49:12.258Z,8.96
2023-02-23T12:50:12.270Z,8.91
2023-02-23T12:51:12.020Z,8.84
2023-02-23T12:52:12.455Z,8.86
2023-02-23T12:53:12.014Z,8.87
2023-02-23T12:54:12.168Z,8.88
2023-02-23T12:55:11.999Z,8.84
2023-02-23T12:56:12.197Z,8.81
2023-02-23T12:57:11.979Z,8.79
2023-02-23T12:58:12.011Z,8.81
2023-02-23T12:59:12.162Z,8.81
2023-02-23T13:00:12.227Z,8.84
2023-02-23T13:01:12.171Z,8.84
2023-02-23T13:02:11.977Z,8.87
2023-02-23T13:03:11.929Z,8.96
2023-02-23T13:04:11.976Z,9.02
2023-02-23T13:05:11.879Z,9.06
2023-02-23T13:06:11.992Z,9.12
2023-02-23T13:07:11.948Z,9.13
2023-02-23T13:08:13.875Z,9.12
2023-02-23T13:09:12.072Z,9.13
2023-02-23T13:10:11.963Z,9.10
2023-02-23T13:11:12.048Z,9.09
2023-02-23T13:12:11.994Z,9.04
2023-02-23T13:13:12.112Z,8.96
2023-02-23T13:14:12.033Z,8.91
2023-02-23T13:15:11.891Z,8.88
2023-02-23T13:16:11.811Z,8.87
2023-02-23T13:17:11.845Z,8.87
2023-02-23T13:18:11.987Z,8.87